Savannah — WDD9810 — position and weather

sailwx.info

Track history (hours):
 
Tides and Currents Weather Stations Pressure Air Temp Water Temp Dewpoint Dewpoint Depression Visibility Wind Speed Wind Dir Waves Ship Positions

Savannah

Owner: Crescent Towing & Salvage Co Inc, New Orleans, LA. More information available from US FCC via Universal Licensing System and Coast Guard Vessel Documentation Center.

Last reported at 2018-Jun-25 09:30 UTC. Time now 2018-Jun-25 09:40 UTC.
Position N 32°07' W 081°08'.

Length 28 m; draft 4.5 m.

Type: Tug. MMSI: 367316630.

Date/timePositionNaut miles runAvg speedWind from/ knotsBaromVisibWave heightAir tempDewpointWater temp
2018-Jun-25 09:30N 32°07' W 081°08'0 0.5
2018-Jun-25 09:00N 32°08' W 081°08'1 1.3
2018-Jun-25 08:30N 32°07' W 081°08'0 0.1
2018-Jun-25 07:53N 32°07' W 081°08'0 0.0
2018-Jun-25 07:29N 32°07' W 081°08'0 0.0
2018-Jun-25 06:59N 32°07' W 081°08'0 0.0
2018-Jun-25 06:29N 32°07' W 081°08'0 0.0
2018-Jun-25 05:59N 32°07' W 081°08'1 1.1
2018-Jun-25 05:26N 32°07' W 081°07'0 0.1
2018-Jun-25 04:55N 32°07' W 081°07'2 5.6
2018-Jun-25 04:30N 32°05' W 081°05'1 0.1
2018-Jun-24 14:21N 32°05' W 081°04'0 0.0
2018-Jun-24 13:57N 32°05' W 081°04'0 0.0
2018-Jun-24 13:21N 32°05' W 081°04'0 0.0
2018-Jun-24 12:57N 32°05' W 081°04'0 0.0
2018-Jun-24 12:27N 32°05' W 081°04'0 0.0
2018-Jun-24 11:57N 32°05' W 081°04'0 0.0
2018-Jun-24 11:27N 32°05' W 081°04'0 0.0
2018-Jun-24 10:57N 32°05' W 081°04'0 0.0
2018-Jun-24 10:27N 32°05' W 081°04'0 0.0
2018-Jun-24 09:45N 32°05' W 081°04'0 0.0
2018-Jun-24 09:21N 32°05' W 081°04'0 0.0
2018-Jun-24 08:51N 32°05' W 081°04'1 3.5
2018-Jun-24 08:30N 32°05' W 081°05'1 1.6
2018-Jun-24 07:58N 32°05' W 081°06'2 3.5
2018-Jun-24 07:30N 32°07' W 081°07'0 0.1
2018-Jun-24 06:46N 32°07' W 081°07'0 0.0
2018-Jun-24 06:22N 32°07' W 081°07'0 0.0
2018-Jun-24 05:58N 32°07' W 081°07'1 2.8
2018-Jun-24 05:30N 32°08' W 081°08'0 0.5
2018-Jun-24 04:51N 32°08' W 081°09'1 2.7
2018-Jun-24 04:28N 32°07' W 081°08'0 0.0
2018-Jun-24 03:58N 32°07' W 081°08'0 0.0
2018-Jun-24 03:28N 32°07' W 081°08'0 0.0
2018-Jun-24 02:58N 32°07' W 081°08'0 0.0
2018-Jun-24 02:28N 32°07' W 081°08'0 0.0
2018-Jun-24 01:58N 32°07' W 081°08'0 0.0
2018-Jun-24 01:28N 32°07' W 081°08'0 0.0
2018-Jun-24 00:58N 32°07' W 081°08'0 0.0
2018-Jun-24 00:30N 32°07' W 081°08'1 2.5
2018-Jun-23 23:57N 32°08' W 081°09'0 0.7
2018-Jun-23 23:26N 32°08' W 081°08'1 1.6
2018-Jun-23 23:00N 32°07' W 081°08'2 4.2
2018-Jun-23 22:30N 32°06' W 081°06'2 4.7
2018-Jun-23 22:00N 32°05' W 081°04'2 3.5
2018-Jun-23 21:29N 32°05' W 081°02'2 2.8
2018-Jun-23 20:50N 32°05' W 081°04'0 0.0
2018-Jun-23 20:26N 32°05' W 081°04'0 0.0
2018-Jun-23 19:56N 32°05' W 081°04'0 0.0
2018-Jun-23 19:20N 32°05' W 081°04'0 0.0
2018-Jun-23 18:56N 32°05' W 081°04'0 0.0
2018-Jun-23 18:26N 32°05' W 081°04'0 0.0
2018-Jun-23 17:56N 32°05' W 081°04'0 0.0
2018-Jun-23 17:28N 32°05' W 081°04'3 6.3
2018-Jun-23 17:00N 32°06' W 081°07'2 3.9
2018-Jun-23 16:30N 32°08' W 081°08'1 1.4
2018-Jun-23 16:00N 32°07' W 081°08'2 4.6
2018-Jun-23 15:30N 32°06' W 081°06'2 3.5
2018-Jun-23 14:56N 32°05' W 081°04'0 0.1
2018-Jun-23 14:25N 32°05' W 081°04'0 0.0
2018-Jun-23 13:43N 32°05' W 081°04'0 0.0
2018-Jun-23 13:25N 32°05' W 081°04'0 0.0
2018-Jun-23 12:49N 32°05' W 081°04'0 0.0
2018-Jun-23 12:25N 32°05' W 081°04'0 0.0
2018-Jun-23 11:55N 32°05' W 081°04'0 0.0
2018-Jun-23 11:17N 32°05' W 081°04'1 4.2
2018-Jun-23 11:00N 32°05' W 081°05'4 8.2
2018-Jun-23 10:31N 32°08' W 081°08'0 0.2
2018-Jun-23 09:57N 32°08' W 081°09'0 0.1
2018-Jun-23 09:21N 32°08' W 081°09'0 0.0
2018-Jun-23 08:51N 32°08' W 081°09'0 0.0
2018-Jun-23 08:21N 32°08' W 081°09'2 6.5
2018-Jun-23 08:00N 32°06' W 081°07'4 7.1
2018-Jun-23 07:30N 32°05' W 081°03'2 4.5
2018-Jun-23 07:00N 32°05' W 081°06'2 3.3
2018-Jun-23 06:30N 32°06' W 081°07'2 3.8
2018-Jun-23 06:00N 32°08' W 081°08'0 0.8
2018-Jun-23 05:28N 32°08' W 081°09'0 0.0
2018-Jun-23 04:58N 32°08' W 081°09'4 7.6
2018-Jun-23 04:30N 32°05' W 081°06'2 3.3
2018-Jun-23 03:56N 32°05' W 081°04'0 0.0
2018-Jun-23 03:26N 32°05' W 081°04'0 0.0
2018-Jun-23 02:56N 32°05' W 081°04'0 0.2
2018-Jun-23 02:25N 32°05' W 081°04'0 0.2
2018-Jun-23 01:56N 32°05' W 081°04'0 0.0
2018-Jun-23 01:26N 32°05' W 081°04'0 0.0
2018-Jun-23 00:55N 32°05' W 081°04'0 0.0
2018-Jun-23 00:26N 32°05' W 081°04'0 0.0
2018-Jun-22 23:56N 32°05' W 081°04'0 0.0
2018-Jun-22 23:26N 32°05' W 081°04'0 0.0
2018-Jun-22 22:56N 32°05' W 081°04'0 0.0
2018-Jun-22 22:26N 32°05' W 081°04'0 0.0
2018-Jun-22 21:55N 32°05' W 081°04'0 0.0
2018-Jun-22 21:26N 32°05' W 081°04'0 0.0
2018-Jun-22 20:56N 32°05' W 081°04'0 0.0
2018-Jun-22 20:26N 32°05' W 081°04'0 0.0
2018-Jun-22 19:56N 32°05' W 081°04'0 0.0
2018-Jun-22 19:26N 32°05' W 081°04'0 0.0
2018-Jun-22 18:56N 32°05' W 081°04'0 0.0
2018-Jun-22 18:26N 32°05' W 081°04'0 0.0
2018-Jun-22 17:56N 32°05' W 081°04'0 0.0
2018-Jun-22 17:26N 32°05' W 081°04'0 0.0
2018-Jun-22 16:55N 32°05' W 081°04'0 0.0
2018-Jun-22 16:26N 32°05' W 081°04'0 0.0
2018-Jun-22 15:55N 32°05' W 081°04'0 0.0
2018-Jun-22 15:25N 32°05' W 081°04'0 0.0
2018-Jun-22 14:50N 32°05' W 081°04'0 0.0
2018-Jun-22 14:25N 32°05' W 081°04'0 0.0
2018-Jun-22 13:56N 32°05' W 081°04'0 0.0
2018-Jun-22 13:29N 32°05' W 081°04'2 3.6
2018-Jun-22 12:51N 32°06' W 081°06'0 0.0
2018-Jun-22 12:27N 32°06' W 081°06'0 0.3
2018-Jun-22 12:00N 32°06' W 081°06'1 2.3
2018-Jun-22 11:30N 32°05' W 081°05'1 1.1
2018-Jun-22 11:00N 32°05' W 081°06'0 0.0
2018-Jun-22 10:30N 32°05' W 081°06'2 3.6
2018-Jun-22 10:00N 32°06' W 081°07'2 3.2
2018-Jun-22 09:24N 32°08' W 081°08'0 0.2
2018-Jun-22 09:00N 32°08' W 081°09'0 0.0
2018-Jun-22 08:24N 32°08' W 081°09'0 0.0
2018-Jun-22 08:00N 32°08' W 081°09'0 0.2
2018-Jun-22 07:30N 32°08' W 081°09'0 0.3
2018-Jun-22 07:00N 32°08' W 081°08'3 5.4
2018-Jun-22 06:30N 32°06' W 081°07'2 4.8
2018-Jun-22 06:01N 32°05' W 081°04'0 0.0
2018-Jun-21 22:27N 32°05' W 081°04'0 0.0
2018-Jun-21 22:00N 32°05' W 081°04'2 4.7
2018-Jun-21 21:30N 32°06' W 081°06'2 4.2
2018-Jun-21 20:58N 32°08' W 081°08'0 0.6
2018-Jun-21 20:30N 32°08' W 081°08'0 0.0
2018-Jun-21 19:55N 32°08' W 081°08'1 2.9
2018-Jun-21 19:30N 32°07' W 081°08'2 4.2
2018-Jun-21 19:00N 32°05' W 081°06'2 3.2
2018-Jun-21 18:30N 32°05' W 081°04'1 2.9
2018-Jun-21 18:00N 32°05' W 081°02'1 0.2
2018-Jun-21 11:11N 32°05' W 081°04'0 0.0
2018-Jun-21 10:48N 32°05' W 081°04'2 2.5
2018-Jun-21 10:05N 32°05' W 081°06'0 1.1
2018-Jun-21 10:00N 32°05' W 081°06'3 5.5
2018-Jun-21 09:30N 32°07' W 081°08'0 0.8
2018-Jun-21 09:00N 32°07' W 081°08'1 0.8
2018-Jun-21 07:49N 32°08' W 081°08'1 3.4
2018-Jun-21 07:30N 32°07' W 081°08'2 1.3
2018-Jun-21 05:49N 32°05' W 081°06'0 0.0
2018-Jun-21 05:23N 32°05' W 081°06'3 7.4
2018-Jun-21 05:00N 32°08' W 081°08'1 1.0
2018-Jun-21 04:08N 32°08' W 081°08'1 7.8
2018-Jun-21 04:00N 32°07' W 081°08'4 8.6
2018-Jun-21 03:30N 32°05' W 081°04'0 0.0
2018-Jun-20 15:58N 32°05' W 081°04'4 7.6
2018-Jun-20 15:30N 32°07' W 081°07'1 1.7
2018-Jun-20 14:51N 32°08' W 081°08'0 0.1
2018-Jun-20 14:26N 32°08' W 081°08'3 6.3
2018-Jun-20 14:00N 32°05' W 081°06'2 0.1
2018-Jun-19 19:52N 32°05' W 081°04'3 9.4
2018-Jun-19 19:30N 32°07' W 081°07'1 1.5
2018-Jun-19 19:00N 32°07' W 081°08'1 1.1
2018-Jun-19 18:28N 32°08' W 081°08'3 5.6
2018-Jun-19 18:00N 32°06' W 081°07'2 3.7
2018-Jun-19 17:22N 32°05' W 081°04'0 1.3
2018-Jun-19 17:00N 32°05' W 081°04'0 0.3
2018-Jun-19 16:00N 32°05' W 081°04'0 0.0
2018-Jun-19 15:18N 32°05' W 081°04'2 5.4
2018-Jun-19 15:00N 32°05' W 081°06'0 0.6
2018-Jun-19 14:30N 32°05' W 081°06'3 6.3
2018-Jun-19 13:58N 32°08' W 081°08'0 0.3
2018-Jun-19 13:30N 32°08' W 081°08'3 5.7
2018-Jun-19 13:00N 32°06' W 081°06'1 2.2
2018-Jun-19 12:30N 32°05' W 081°05'3 3.1
2018-Jun-19 11:29N 32°07' W 081°08'1 1.1
2018-Jun-19 10:51N 32°08' W 081°08'0 0.5
2018-Jun-19 10:30N 32°08' W 081°08'3 5.1
2018-Jun-19 10:00N 32°06' W 081°06'2 4.2
2018-Jun-19 09:29N 32°05' W 081°04'3 5.4
2018-Jun-19 09:00N 32°06' W 081°01'3 3.7
2018-Jun-19 08:17N 32°04' W 080°58'1 5.2
2018-Jun-19 08:00N 32°05' W 080°59'5 9.9
2018-Jun-19 07:30N 32°05' W 081°05'3 5.2
2018-Jun-19 06:54N 32°07' W 081°08'2 5.5
2018-Jun-19 06:30N 32°06' W 081°06'2 1.4
2018-Jun-19 05:05N 32°05' W 081°04'0 0.0
2018-Jun-19 03:20N 32°05' W 081°04'0 0.0
2018-Jun-19 02:59N 32°05' W 081°04'0 0.0
2018-Jun-19 02:29N 32°05' W 081°04'0 0.0
2018-Jun-19 01:59N 32°05' W 081°04'0 0.0
2018-Jun-19 01:20N 32°05' W 081°04'0 0.7
2018-Jun-19 01:00N 32°05' W 081°04'2 3.6
2018-Jun-19 00:30N 32°05' W 081°06'2 4.8
2018-Jun-19 00:00N 32°07' W 081°08'1 0.8
2018-Jun-18 23:20N 32°08' W 081°08'2 5.2
2018-Jun-18 22:59N 32°06' W 081°07'3 6.1
2018-Jun-18 22:30N 32°05' W 081°04'0 0.4
2018-Jun-18 21:59N 32°05' W 081°04'0 0.0
2018-Jun-18 21:23N 32°05' W 081°04'0 0.0
2018-Jun-18 20:02N 32°05' W 081°04'0 0.0
2018-Jun-18 19:56N 32°05' W 081°04'0 0.0
2018-Jun-18 19:29N 32°05' W 081°04'0 0.0
2018-Jun-18 18:59N 32°05' W 081°04'0 0.0
2018-Jun-18 17:42N 32°05' W 081°04'2 7.7
2018-Jun-18 17:29N 32°05' W 081°06'3 3.7
2018-Jun-18 16:43N 32°07' W 081°08'1 2.3
2018-Jun-18 16:28N 32°08' W 081°08'2 3.3
2018-Jun-18 16:00N 32°07' W 081°07'2 4.4
2018-Jun-18 15:28N 32°05' W 081°05'0 0.3
2018-Jun-18 15:00N 32°05' W 081°05'0 0.9
2018-Jun-18 14:29N 32°05' W 081°06'2 3.7
2018-Jun-18 13:58N 32°07' W 081°07'3 6.4
2018-Jun-18 13:30N 32°05' W 081°05'2 3.5
2018-Jun-18 13:00N 32°06' W 081°06'2 3.3
2018-Jun-18 12:23N 32°07' W 081°08'0 0.5
2018-Jun-18 12:00N 32°07' W 081°08'0 0.0
2018-Jun-18 11:21N 32°07' W 081°08'0 0.0
2018-Jun-18 10:57N 32°07' W 081°08'0 0.0
2018-Jun-18 10:30N 32°07' W 081°08'0 0.0
2018-Jun-18 09:57N 32°07' W 081°08'0 0.0
2018-Jun-18 09:30N 32°07' W 081°08'0 0.0
2018-Jun-18 08:57N 32°07' W 081°08'0 0.0
2018-Jun-18 08:24N 32°07' W 081°08'0 0.0
2018-Jun-18 08:00N 32°07' W 081°08'0 0.0
2018-Jun-18 07:27N 32°07' W 081°08'0 0.0
2018-Jun-18 06:55N 32°07' W 081°08'1 1.3
2018-Jun-18 06:08N 32°08' W 081°08'0 1.8
2018-Jun-18 06:00N 32°08' W 081°08'3 5.3
2018-Jun-18 05:30N 32°06' W 081°06'2 0.3
2018-Jun-17 23:06N 32°05' W 081°04'0 0.0
2018-Jun-17 23:00N 32°05' W 081°04'0 0.0
2018-Jun-17 22:21N 32°05' W 081°04'0 0.0
2018-Jun-17 22:00N 32°05' W 081°04'0 0.0
2018-Jun-17 21:30N 32°05' W 081°04'0 0.0
2018-Jun-17 20:57N 32°05' W 081°04'0 0.0
2018-Jun-17 20:06N 32°05' W 081°04'0 0.0
2018-Jun-17 20:00N 32°05' W 081°04'0 0.0
2018-Jun-17 19:24N 32°05' W 081°04'0 0.0
2018-Jun-17 19:00N 32°05' W 081°04'0 0.0
2018-Jun-17 17:55N 32°05' W 081°04'2 4.5
2018-Jun-17 17:30N 32°05' W 081°06'0 0.1
2018-Jun-17 16:57N 32°05' W 081°06'0 0.0
2018-Jun-17 16:18N 32°05' W 081°06'0 0.0
2018-Jun-17 16:00N 32°05' W 081°06'0 0.0
2018-Jun-17 15:27N 32°05' W 081°06'3 6.9
2018-Jun-17 14:59N 32°08' W 081°08'1 1.5
2018-Jun-17 14:29N 32°07' W 081°08'0 0.2
2018-Jun-17 13:49N 32°07' W 081°08'0 0.0
2018-Jun-17 13:25N 32°07' W 081°08'0 1.0
2018-Jun-17 13:00N 32°08' W 081°08'1 1.4
2018-Jun-17 12:30N 32°07' W 081°08'4 5.6
2018-Jun-17 11:49N 32°05' W 081°04'0 0.0
2018-Jun-17 11:28N 32°05' W 081°04'0 0.0
2018-Jun-17 10:04N 32°05' W 081°04'0 0.0
2018-Jun-17 09:41N 32°05' W 081°04'1 5.5
2018-Jun-17 09:30N 32°05' W 081°05'1 1.6
2018-Jun-17 08:49N 32°05' W 081°06'2 5.2
2018-Jun-17 08:30N 32°07' W 081°07'2 1.9
2018-Jun-17 07:37N 32°05' W 081°06'0 0.0
2018-Jun-17 07:13N 32°05' W 081°06'0 0.0
2018-Jun-17 06:40N 32°05' W 081°06'0 0.0
2018-Jun-17 06:28N 32°05' W 081°06'0 0.0
2018-Jun-17 05:58N 32°05' W 081°06'0 0.0
2018-Jun-17 05:22N 32°05' W 081°06'0 0.0
2018-Jun-17 04:01N 32°05' W 081°06'0 0.1
2018-Jun-17 03:58N 32°05' W 081°06'0 0.0
2018-Jun-17 03:22N 32°05' W 081°06'0 0.4
2018-Jun-17 02:59N 32°06' W 081°06'2 3.6
2018-Jun-17 02:30N 32°05' W 081°04'0 0.8
2018-Jun-17 01:55N 32°05' W 081°04'0 0.0
2018-Jun-16 17:37N 32°05' W 081°04'0 0.0
2018-Jun-16 16:31N 32°05' W 081°04'0 0.1
2018-Jun-16 16:29N 32°05' W 081°04'4 8.3
2018-Jun-16 15:58N 32°07' W 081°08'1 0.4
2018-Jun-16 14:11N 32°08' W 081°09'1 1.9
2018-Jun-16 13:53N 32°08' W 081°08'0 1.0
2018-Jun-16 13:26N 32°08' W 081°08'2 5.1
2018-Jun-16 12:59N 32°06' W 081°07'3 2.3
2018-Jun-16 11:46N 32°05' W 081°04'0 0.0
2018-Jun-16 11:25N 32°05' W 081°04'0 0.0
2018-Jun-16 10:55N 32°05' W 081°04'0 0.0
2018-Jun-16 09:49N 32°05' W 081°04'0 0.0
2018-Jun-16 09:22N 32°05' W 081°04'0 0.0
2018-Jun-16 08:40N 32°05' W 081°04'0 0.0
2018-Jun-16 08:22N 32°05' W 081°04'0 0.0
2018-Jun-16 07:37N 32°05' W 081°04'0 0.1
2018-Jun-16 07:28N 32°05' W 081°04'0 0.0
2018-Jun-16 05:49N 32°05' W 081°04'0 0.0
2018-Jun-16 05:16N 32°05' W 081°04'0 0.0
2018-Jun-16 04:55N 32°05' W 081°04'0 0.0
2018-Jun-16 04:22N 32°05' W 081°04'0 0.0
2018-Jun-16 03:58N 32°05' W 081°04'0 0.0
2018-Jun-16 03:28N 32°05' W 081°04'0 0.0
2018-Jun-16 02:55N 32°05' W 081°04'0 0.0
2018-Jun-16 02:22N 32°05' W 081°04'0 0.0
2018-Jun-15 16:26N 32°05' W 081°04'4 8.3
2018-Jun-15 16:00N 32°07' W 081°07'0 0.9
2018-Jun-15 15:28N 32°07' W 081°08'2 3.5
2018-Jun-15 15:00N 32°06' W 081°07'1 0.6
2018-Jun-15 14:07N 32°05' W 081°06'0 0.0
2018-Jun-15 13:46N 32°05' W 081°06'0 0.0
2018-Jun-15 13:25N 32°05' W 081°06'0 0.0
2018-Jun-15 12:01N 32°05' W 081°06'0 0.0
2018-Jun-15 11:55N 32°05' W 081°06'0 0.0
2018-Jun-15 11:22N 32°05' W 081°06'0 0.0
2018-Jun-15 10:49N 32°05' W 081°06'2 6.9
2018-Jun-15 10:29N 32°07' W 081°08'1 1.6
2018-Jun-15 09:59N 32°08' W 081°08'3 5.3
2018-Jun-15 09:30N 32°06' W 081°07'  
Track history (hours):
 
Tides and Currents Weather Stations Pressure Air Temp Water Temp Dewpoint Dewpoint Depression Visibility Wind Speed Wind Dir Waves Ship Positions

Savannah

Owner: Crescent Towing & Salvage Co Inc, New Orleans, LA. More information available from US FCC via Universal Licensing System and Coast Guard Vessel Documentation Center.

Last reported at 2018-Jun-25 09:30 UTC. Time now 2018-Jun-25 09:40 UTC.
Position N 32°07' W 081°08'.

Length 28 m; draft 4.5 m.

Type: Tug. MMSI: 367316630.

Date/timePositionNaut miles runAvg speedWind from/ knotsBaromVisibWave heightAir tempDewpointWater temp
2018-Jun-25 09:30N 32°07' W 081°08'0 0.5
2018-Jun-25 09:00N 32°08' W 081°08'1 1.3
2018-Jun-25 08:30N 32°07' W 081°08'0 0.1
2018-Jun-25 07:53N 32°07' W 081°08'0 0.0
2018-Jun-25 07:29N 32°07' W 081°08'0 0.0
2018-Jun-25 06:59N 32°07' W 081°08'0 0.0
2018-Jun-25 06:29N 32°07' W 081°08'0 0.0
2018-Jun-25 05:59N 32°07' W 081°08'1 1.1
2018-Jun-25 05:26N 32°07' W 081°07'0 0.1
2018-Jun-25 04:55N 32°07' W 081°07'2 5.6
2018-Jun-25 04:30N 32°05' W 081°05'1 0.1
2018-Jun-24 14:21N 32°05' W 081°04'0 0.0
2018-Jun-24 13:57N 32°05' W 081°04'0 0.0
2018-Jun-24 13:21N 32°05' W 081°04'0 0.0
2018-Jun-24 12:57N 32°05' W 081°04'0 0.0
2018-Jun-24 12:27N 32°05' W 081°04'0 0.0
2018-Jun-24 11:57N 32°05' W 081°04'0 0.0
2018-Jun-24 11:27N 32°05' W 081°04'0 0.0
2018-Jun-24 10:57N 32°05' W 081°04'0 0.0
2018-Jun-24 10:27N 32°05' W 081°04'0 0.0
2018-Jun-24 09:45N 32°05' W 081°04'0 0.0
2018-Jun-24 09:21N 32°05' W 081°04'0 0.0
2018-Jun-24 08:51N 32°05' W 081°04'1 3.5
2018-Jun-24 08:30N 32°05' W 081°05'1 1.6
2018-Jun-24 07:58N 32°05' W 081°06'2 3.5
2018-Jun-24 07:30N 32°07' W 081°07'0 0.1
2018-Jun-24 06:46N 32°07' W 081°07'0 0.0
2018-Jun-24 06:22N 32°07' W 081°07'0 0.0
2018-Jun-24 05:58N 32°07' W 081°07'1 2.8
2018-Jun-24 05:30N 32°08' W 081°08'0 0.5
2018-Jun-24 04:51N 32°08' W 081°09'1 2.7
2018-Jun-24 04:28N 32°07' W 081°08'0 0.0
2018-Jun-24 03:58N 32°07' W 081°08'0 0.0
2018-Jun-24 03:28N 32°07' W 081°08'0 0.0
2018-Jun-24 02:58N 32°07' W 081°08'0 0.0
2018-Jun-24 02:28N 32°07' W 081°08'0 0.0
2018-Jun-24 01:58N 32°07' W 081°08'0 0.0
2018-Jun-24 01:28N 32°07' W 081°08'0 0.0
2018-Jun-24 00:58N 32°07' W 081°08'0 0.0
2018-Jun-24 00:30N 32°07' W 081°08'1 2.5
2018-Jun-23 23:57N 32°08' W 081°09'0 0.7
2018-Jun-23 23:26N 32°08' W 081°08'1 1.6
2018-Jun-23 23:00N 32°07' W 081°08'2 4.2
2018-Jun-23 22:30N 32°06' W 081°06'2 4.7
2018-Jun-23 22:00N 32°05' W 081°04'2 3.5
2018-Jun-23 21:29N 32°05' W 081°02'2 2.8
2018-Jun-23 20:50N 32°05' W 081°04'0 0.0
2018-Jun-23 20:26N 32°05' W 081°04'0 0.0
2018-Jun-23 19:56N 32°05' W 081°04'0 0.0
2018-Jun-23 19:20N 32°05' W 081°04'0 0.0
2018-Jun-23 18:56N 32°05' W 081°04'0 0.0
2018-Jun-23 18:26N 32°05' W 081°04'0 0.0
2018-Jun-23 17:56N 32°05' W 081°04'0 0.0
2018-Jun-23 17:28N 32°05' W 081°04'3 6.3
2018-Jun-23 17:00N 32°06' W 081°07'2 3.9
2018-Jun-23 16:30N 32°08' W 081°08'1 1.4
2018-Jun-23 16:00N 32°07' W 081°08'2 4.6
2018-Jun-23 15:30N 32°06' W 081°06'2 3.5
2018-Jun-23 14:56N 32°05' W 081°04'0 0.1
2018-Jun-23 14:25N 32°05' W 081°04'0 0.0
2018-Jun-23 13:43N 32°05' W 081°04'0 0.0
2018-Jun-23 13:25N 32°05' W 081°04'0 0.0
2018-Jun-23 12:49N 32°05' W 081°04'0 0.0
2018-Jun-23 12:25N 32°05' W 081°04'0 0.0
2018-Jun-23 11:55N 32°05' W 081°04'0 0.0
2018-Jun-23 11:17N 32°05' W 081°04'1 4.2
2018-Jun-23 11:00N 32°05' W 081°05'4 8.2
2018-Jun-23 10:31N 32°08' W 081°08'0 0.2
2018-Jun-23 09:57N 32°08' W 081°09'0 0.1
2018-Jun-23 09:21N 32°08' W 081°09'0 0.0
2018-Jun-23 08:51N 32°08' W 081°09'0 0.0
2018-Jun-23 08:21N 32°08' W 081°09'2 6.5
2018-Jun-23 08:00N 32°06' W 081°07'4 7.1
2018-Jun-23 07:30N 32°05' W 081°03'2 4.5
2018-Jun-23 07:00N 32°05' W 081°06'2 3.3
2018-Jun-23 06:30N 32°06' W 081°07'2 3.8
2018-Jun-23 06:00N 32°08' W 081°08'0 0.8
2018-Jun-23 05:28N 32°08' W 081°09'0 0.0
2018-Jun-23 04:58N 32°08' W 081°09'4 7.6
2018-Jun-23 04:30N 32°05' W 081°06'2 3.3
2018-Jun-23 03:56N 32°05' W 081°04'0 0.0
2018-Jun-23 03:26N 32°05' W 081°04'0 0.0
2018-Jun-23 02:56N 32°05' W 081°04'0 0.2
2018-Jun-23 02:25N 32°05' W 081°04'0 0.2
2018-Jun-23 01:56N 32°05' W 081°04'0 0.0
2018-Jun-23 01:26N 32°05' W 081°04'0 0.0
2018-Jun-23 00:55N 32°05' W 081°04'0 0.0
2018-Jun-23 00:26N 32°05' W 081°04'0 0.0
2018-Jun-22 23:56N 32°05' W 081°04'0 0.0
2018-Jun-22 23:26N 32°05' W 081°04'0 0.0
2018-Jun-22 22:56N 32°05' W 081°04'0 0.0
2018-Jun-22 22:26N 32°05' W 081°04'0 0.0
2018-Jun-22 21:55N 32°05' W 081°04'0 0.0
2018-Jun-22 21:26N 32°05' W 081°04'0 0.0
2018-Jun-22 20:56N 32°05' W 081°04'0 0.0
2018-Jun-22 20:26N 32°05' W 081°04'0 0.0
2018-Jun-22 19:56N 32°05' W 081°04'0 0.0
2018-Jun-22 19:26N 32°05' W 081°04'0 0.0
2018-Jun-22 18:56N 32°05' W 081°04'0 0.0
2018-Jun-22 18:26N 32°05' W 081°04'0 0.0
2018-Jun-22 17:56N 32°05' W 081°04'0 0.0
2018-Jun-22 17:26N 32°05' W 081°04'0 0.0
2018-Jun-22 16:55N 32°05' W 081°04'0 0.0
2018-Jun-22 16:26N 32°05' W 081°04'0 0.0
2018-Jun-22 15:55N 32°05' W 081°04'0 0.0
2018-Jun-22 15:25N 32°05' W 081°04'0 0.0
2018-Jun-22 14:50N 32°05' W 081°04'0 0.0
2018-Jun-22 14:25N 32°05' W 081°04'0 0.0
2018-Jun-22 13:56N 32°05' W 081°04'0 0.0
2018-Jun-22 13:29N 32°05' W 081°04'2 3.6
2018-Jun-22 12:51N 32°06' W 081°06'0 0.0
2018-Jun-22 12:27N 32°06' W 081°06'0 0.3
2018-Jun-22 12:00N 32°06' W 081°06'1 2.3
2018-Jun-22 11:30N 32°05' W 081°05'1 1.1
2018-Jun-22 11:00N 32°05' W 081°06'0 0.0
2018-Jun-22 10:30N 32°05' W 081°06'2 3.6
2018-Jun-22 10:00N 32°06' W 081°07'2 3.2
2018-Jun-22 09:24N 32°08' W 081°08'0 0.2
2018-Jun-22 09:00N 32°08' W 081°09'0 0.0
2018-Jun-22 08:24N 32°08' W 081°09'0 0.0
2018-Jun-22 08:00N 32°08' W 081°09'0 0.2
2018-Jun-22 07:30N 32°08' W 081°09'0 0.3
2018-Jun-22 07:00N 32°08' W 081°08'3 5.4
2018-Jun-22 06:30N 32°06' W 081°07'2 4.8
2018-Jun-22 06:01N 32°05' W 081°04'0 0.0
2018-Jun-21 22:27N 32°05' W 081°04'0 0.0
2018-Jun-21 22:00N 32°05' W 081°04'2 4.7
2018-Jun-21 21:30N 32°06' W 081°06'2 4.2
2018-Jun-21 20:58N 32°08' W 081°08'0 0.6
2018-Jun-21 20:30N 32°08' W 081°08'0 0.0
2018-Jun-21 19:55N 32°08' W 081°08'1 2.9
2018-Jun-21 19:30N 32°07' W 081°08'2 4.2
2018-Jun-21 19:00N 32°05' W 081°06'2 3.2
2018-Jun-21 18:30N 32°05' W 081°04'1 2.9
2018-Jun-21 18:00N 32°05' W 081°02'1 0.2
2018-Jun-21 11:11N 32°05' W 081°04'0 0.0
2018-Jun-21 10:48N 32°05' W 081°04'2 2.5
2018-Jun-21 10:05N 32°05' W 081°06'0 1.1
2018-Jun-21 10:00N 32°05' W 081°06'3 5.5
2018-Jun-21 09:30N 32°07' W 081°08'0 0.8
2018-Jun-21 09:00N 32°07' W 081°08'1 0.8
2018-Jun-21 07:49N 32°08' W 081°08'1 3.4
2018-Jun-21 07:30N 32°07' W 081°08'2 1.3
2018-Jun-21 05:49N 32°05' W 081°06'0 0.0
2018-Jun-21 05:23N 32°05' W 081°06'3 7.4
2018-Jun-21 05:00N 32°08' W 081°08'1 1.0
2018-Jun-21 04:08N 32°08' W 081°08'1 7.8
2018-Jun-21 04:00N 32°07' W 081°08'4 8.6
2018-Jun-21 03:30N 32°05' W 081°04'0 0.0
2018-Jun-20 15:58N 32°05' W 081°04'4 7.6
2018-Jun-20 15:30N 32°07' W 081°07'1 1.7
2018-Jun-20 14:51N 32°08' W 081°08'0 0.1
2018-Jun-20 14:26N 32°08' W 081°08'3 6.3
2018-Jun-20 14:00N 32°05' W 081°06'2 0.1
2018-Jun-19 19:52N 32°05' W 081°04'3 9.4
2018-Jun-19 19:30N 32°07' W 081°07'1 1.5
2018-Jun-19 19:00N 32°07' W 081°08'1 1.1
2018-Jun-19 18:28N 32°08' W 081°08'3 5.6
2018-Jun-19 18:00N 32°06' W 081°07'2 3.7
2018-Jun-19 17:22N 32°05' W 081°04'0 1.3
2018-Jun-19 17:00N 32°05' W 081°04'0 0.3
2018-Jun-19 16:00N 32°05' W 081°04'0 0.0
2018-Jun-19 15:18N 32°05' W 081°04'2 5.4
2018-Jun-19 15:00N 32°05' W 081°06'0 0.6
2018-Jun-19 14:30N 32°05' W 081°06'3 6.3
2018-Jun-19 13:58N 32°08' W 081°08'0 0.3
2018-Jun-19 13:30N 32°08' W 081°08'3 5.7
2018-Jun-19 13:00N 32°06' W 081°06'1 2.2
2018-Jun-19 12:30N 32°05' W 081°05'3 3.1
2018-Jun-19 11:29N 32°07' W 081°08'1 1.1
2018-Jun-19 10:51N 32°08' W 081°08'0 0.5
2018-Jun-19 10:30N 32°08' W 081°08'3 5.1
2018-Jun-19 10:00N 32°06' W 081°06'2 4.2
2018-Jun-19 09:29N 32°05' W 081°04'3 5.4
2018-Jun-19 09:00N 32°06' W 081°01'3 3.7
2018-Jun-19 08:17N 32°04' W 080°58'1 5.2
2018-Jun-19 08:00N 32°05' W 080°59'5 9.9
2018-Jun-19 07:30N 32°05' W 081°05'3 5.2
2018-Jun-19 06:54N 32°07' W 081°08'2 5.5
2018-Jun-19 06:30N 32°06' W 081°06'2 1.4
2018-Jun-19 05:05N 32°05' W 081°04'0 0.0
2018-Jun-19 03:20N 32°05' W 081°04'0 0.0
2018-Jun-19 02:59N 32°05' W 081°04'0 0.0
2018-Jun-19 02:29N 32°05' W 081°04'0 0.0
2018-Jun-19 01:59N 32°05' W 081°04'0 0.0
2018-Jun-19 01:20N 32°05' W 081°04'0 0.7
2018-Jun-19 01:00N 32°05' W 081°04'2 3.6
2018-Jun-19 00:30N 32°05' W 081°06'2 4.8
2018-Jun-19 00:00N 32°07' W 081°08'1 0.8
2018-Jun-18 23:20N 32°08' W 081°08'2 5.2
2018-Jun-18 22:59N 32°06' W 081°07'3 6.1
2018-Jun-18 22:30N 32°05' W 081°04'0 0.4
2018-Jun-18 21:59N 32°05' W 081°04'0 0.0
2018-Jun-18 21:23N 32°05' W 081°04'0 0.0
2018-Jun-18 20:02N 32°05' W 081°04'0 0.0
2018-Jun-18 19:56N 32°05' W 081°04'0 0.0
2018-Jun-18 19:29N 32°05' W 081°04'0 0.0
2018-Jun-18 18:59N 32°05' W 081°04'0 0.0
2018-Jun-18 17:42N 32°05' W 081°04'2 7.7
2018-Jun-18 17:29N 32°05' W 081°06'3 3.7
2018-Jun-18 16:43N 32°07' W 081°08'1 2.3
2018-Jun-18 16:28N 32°08' W 081°08'2 3.3
2018-Jun-18 16:00N 32°07' W 081°07'2 4.4
2018-Jun-18 15:28N 32°05' W 081°05'0 0.3
2018-Jun-18 15:00N 32°05' W 081°05'0 0.9
2018-Jun-18 14:29N 32°05' W 081°06'2 3.7
2018-Jun-18 13:58N 32°07' W 081°07'3 6.4
2018-Jun-18 13:30N 32°05' W 081°05'2 3.5
2018-Jun-18 13:00N 32°06' W 081°06'2 3.3
2018-Jun-18 12:23N 32°07' W 081°08'0 0.5
2018-Jun-18 12:00N 32°07' W 081°08'0 0.0
2018-Jun-18 11:21N 32°07' W 081°08'0 0.0
2018-Jun-18 10:57N 32°07' W 081°08'0 0.0
2018-Jun-18 10:30N 32°07' W 081°08'0 0.0
2018-Jun-18 09:57N 32°07' W 081°08'0 0.0
2018-Jun-18 09:30N 32°07' W 081°08'0 0.0
2018-Jun-18 08:57N 32°07' W 081°08'0 0.0
2018-Jun-18 08:24N 32°07' W 081°08'0 0.0
2018-Jun-18 08:00N 32°07' W 081°08'0 0.0
2018-Jun-18 07:27N 32°07' W 081°08'0 0.0
2018-Jun-18 06:55N 32°07' W 081°08'1 1.3
2018-Jun-18 06:08N 32°08' W 081°08'0 1.8
2018-Jun-18 06:00N 32°08' W 081°08'3 5.3
2018-Jun-18 05:30N 32°06' W 081°06'2 0.3
2018-Jun-17 23:06N 32°05' W 081°04'0 0.0
2018-Jun-17 23:00N 32°05' W 081°04'0 0.0
2018-Jun-17 22:21N 32°05' W 081°04'0 0.0
2018-Jun-17 22:00N 32°05' W 081°04'0 0.0
2018-Jun-17 21:30N 32°05' W 081°04'0 0.0
2018-Jun-17 20:57N 32°05' W 081°04'0 0.0
2018-Jun-17 20:06N 32°05' W 081°04'0 0.0
2018-Jun-17 20:00N 32°05' W 081°04'0 0.0
2018-Jun-17 19:24N 32°05' W 081°04'0 0.0
2018-Jun-17 19:00N 32°05' W 081°04'0 0.0
2018-Jun-17 17:55N 32°05' W 081°04'2 4.5
2018-Jun-17 17:30N 32°05' W 081°06'0 0.1
2018-Jun-17 16:57N 32°05' W 081°06'0 0.0
2018-Jun-17 16:18N 32°05' W 081°06'0 0.0
2018-Jun-17 16:00N 32°05' W 081°06'0 0.0
2018-Jun-17 15:27N 32°05' W 081°06'3 6.9
2018-Jun-17 14:59N 32°08' W 081°08'1 1.5
2018-Jun-17 14:29N 32°07' W 081°08'0 0.2
2018-Jun-17 13:49N 32°07' W 081°08'0 0.0
2018-Jun-17 13:25N 32°07' W 081°08'0 1.0
2018-Jun-17 13:00N 32°08' W 081°08'1 1.4
2018-Jun-17 12:30N 32°07' W 081°08'4 5.6
2018-Jun-17 11:49N 32°05' W 081°04'0 0.0
2018-Jun-17 11:28N 32°05' W 081°04'0 0.0
2018-Jun-17 10:04N 32°05' W 081°04'0 0.0
2018-Jun-17 09:41N 32°05' W 081°04'1 5.5
2018-Jun-17 09:30N 32°05' W 081°05'1 1.6
2018-Jun-17 08:49N 32°05' W 081°06'2 5.2
2018-Jun-17 08:30N 32°07' W 081°07'2 1.9
2018-Jun-17 07:37N 32°05' W 081°06'0 0.0
2018-Jun-17 07:13N 32°05' W 081°06'0 0.0
2018-Jun-17 06:40N 32°05' W 081°06'0 0.0
2018-Jun-17 06:28N 32°05' W 081°06'0 0.0
2018-Jun-17 05:58N 32°05' W 081°06'0 0.0
2018-Jun-17 05:22N 32°05' W 081°06'0 0.0
2018-Jun-17 04:01N 32°05' W 081°06'0 0.1
2018-Jun-17 03:58N 32°05' W 081°06'0 0.0
2018-Jun-17 03:22N 32°05' W 081°06'0 0.4
2018-Jun-17 02:59N 32°06' W 081°06'2 3.6
2018-Jun-17 02:30N 32°05' W 081°04'0 0.8
2018-Jun-17 01:55N 32°05' W 081°04'0 0.0
2018-Jun-16 17:37N 32°05' W 081°04'0 0.0
2018-Jun-16 16:31N 32°05' W 081°04'0 0.1
2018-Jun-16 16:29N 32°05' W 081°04'4 8.3
2018-Jun-16 15:58N 32°07' W 081°08'1 0.4
2018-Jun-16 14:11N 32°08' W 081°09'1 1.9
2018-Jun-16 13:53N 32°08' W 081°08'0 1.0
2018-Jun-16 13:26N 32°08' W 081°08'2 5.1
2018-Jun-16 12:59N 32°06' W 081°07'3 2.3
2018-Jun-16 11:46N 32°05' W 081°04'0 0.0
2018-Jun-16 11:25N 32°05' W 081°04'0 0.0
2018-Jun-16 10:55N 32°05' W 081°04'0 0.0
2018-Jun-16 09:49N 32°05' W 081°04'0 0.0
2018-Jun-16 09:22N 32°05' W 081°04'0 0.0
2018-Jun-16 08:40N 32°05' W 081°04'0 0.0
2018-Jun-16 08:22N 32°05' W 081°04'0 0.0
2018-Jun-16 07:37N 32°05' W 081°04'0 0.1
2018-Jun-16 07:28N 32°05' W 081°04'0 0.0
2018-Jun-16 05:49N 32°05' W 081°04'0 0.0
2018-Jun-16 05:16N 32°05' W 081°04'0 0.0
2018-Jun-16 04:55N 32°05' W 081°04'0 0.0
2018-Jun-16 04:22N 32°05' W 081°04'0 0.0
2018-Jun-16 03:58N 32°05' W 081°04'0 0.0
2018-Jun-16 03:28N 32°05' W 081°04'0 0.0
2018-Jun-16 02:55N 32°05' W 081°04'0 0.0
2018-Jun-16 02:22N 32°05' W 081°04'0 0.0
2018-Jun-15 16:26N 32°05' W 081°04'4 8.3
2018-Jun-15 16:00N 32°07' W 081°07'0 0.9
2018-Jun-15 15:28N 32°07' W 081°08'2 3.5
2018-Jun-15 15:00N 32°06' W 081°07'1 0.6
2018-Jun-15 14:07N 32°05' W 081°06'0 0.0
2018-Jun-15 13:46N 32°05' W 081°06'0 0.0
2018-Jun-15 13:25N 32°05' W 081°06'0 0.0
2018-Jun-15 12:01N 32°05' W 081°06'0 0.0
2018-Jun-15 11:55N 32°05' W 081°06'0 0.0
2018-Jun-15 11:22N 32°05' W 081°06'0 0.0
2018-Jun-15 10:49N 32°05' W 081°06'2 6.9
2018-Jun-15 10:29N 32°07' W 081°08'1 1.6
2018-Jun-15 09:59N 32°08' W 081°08'3 5.3
2018-Jun-15 09:30N 32°06' W 081°07'  

Dump ship's entire track history